sensor_id;sensor_type;location;lat;lon;timestamp;pressure;altitude;pressure_sealevel;temperature;humidity
64192;BME280;50497;50.720;-2.084;2023-02-12T00:02:17;103624.84;;;8.04;100.00
64192;BME280;50497;50.720;-2.084;2023-02-12T00:04:42;103621.22;;;7.95;100.00
64192;BME280;50497;50.720;-2.084;2023-02-12T00:07:08;103604.25;;;7.87;100.00
64192;BME280;50497;50.720;-2.084;2023-02-12T00:09:35;103619.44;;;7.96;100.00
64192;BME280;50497;50.720;-2.084;2023-02-12T00:12:05;103621.13;;;7.86;100.00
64192;BME280;50497;50.720;-2.084;2023-02-12T00:14:31;103618.47;;;7.88;100.00
64192;BME280;50497;50.720;-2.084;2023-02-12T00:16:56;103624.78;;;7.98;100.00
64192;BME280;50497;50.720;-2.084;2023-02-12T00:19:22;103622.06;;;7.93;100.00
64192;BME280;50497;50.720;-2.084;2023-02-12T00:21:48;103598.84;;;7.80;100.00
64192;BME280;50497;50.720;-2.084;2023-02-12T00:24:17;103608.75;;;7.94;100.00
64192;BME280;50497;50.720;-2.084;2023-02-12T00:26:42;103616.78;;;7.98;100.00
64192;BME280;50497;50.720;-2.084;2023-02-12T00:29:09;103601.66;;;7.96;100.00
64192;BME280;50497;50.720;-2.084;2023-02-12T00:31:34;103612.38;;;8.03;100.00
64192;BME280;50497;50.720;-2.084;2023-02-12T00:34:00;103598.09;;;7.96;100.00
64192;BME280;50497;50.720;-2.084;2023-02-12T00:36:31;103600.72;;;7.90;100.00
64192;BME280;50497;50.720;-2.084;2023-02-12T00:38:57;103597.19;;;7.91;100.00
64192;BME280;50497;50.720;-2.084;2023-02-12T00:41:22;103600.72;;;7.91;100.00
64192;BME280;50497;50.720;-2.084;2023-02-12T00:43:49;103599.84;;;7.91;100.00
64192;BME280;50497;50.720;-2.084;2023-02-12T00:46:19;103600.75;;;7.94;100.00
64192;BME280;50497;50.720;-2.084;2023-02-12T00:48:47;103597.09;;;7.83;100.00
64192;BME280;50497;50.720;-2.084;2023-02-12T00:51:13;103597.16;;;7.89;100.00
64192;BME280;50497;50.720;-2.084;2023-02-12T00:53:39;103591.81;;;7.88;100.00
64192;BME280;50497;50.720;-2.084;2023-02-12T00:56:05;103587.38;;;7.88;100.00
64192;BME280;50497;50.720;-2.084;2023-02-12T00:58:30;103582.00;;;7.82;100.00
64192;BME280;50497;50.720;-2.084;2023-02-12T01:00:56;103592.66;;;7.82;100.00
64192;BME280;50497;50.720;-2.084;2023-02-12T01:03:25;103591.75;;;7.83;100.00
64192;BME280;50497;50.720;-2.084;2023-02-12T01:05:51;103588.28;;;7.89;100.00
64192;BME280;50497;50.720;-2.084;2023-02-12T01:08:18;103590.03;;;7.90;100.00
64192;BME280;50497;50.720;-2.084;2023-02-12T01:10:43;103588.97;;;7.71;100.00
64192;BME280;50497;50.720;-2.084;2023-02-12T01:13:14;103583.72;;;7.77;100.00
64192;BME280;50497;50.720;-2.084;2023-02-12T01:15:40;103591.72;;;7.77;100.00
64192;BME280;50497;50.720;-2.084;2023-02-12T01:18:06;103578.34;;;7.74;100.00
64192;BME280;50497;50.720;-2.084;2023-02-12T01:20:34;103589.97;;;7.79;100.00
64192;BME280;50497;50.720;-2.084;2023-02-12T01:23:03;103589.13;;;7.86;100.00
64192;BME280;50497;50.720;-2.084;2023-02-12T01:25:31;103587.31;;;7.82;100.00
64192;BME280;50497;50.720;-2.084;2023-02-12T01:28:00;103571.31;;;7.79;100.00
64192;BME280;50497;50.720;-2.084;2023-02-12T01:30:30;103593.63;;;7.90;100.00
64192;BME280;50497;50.720;-2.084;2023-02-12T01:32:56;103597.09;;;7.83;100.00
64192;BME280;50497;50.720;-2.084;2023-02-12T01:35:21;103590.88;;;7.83;100.00
64192;BME280;50497;50.720;-2.084;2023-02-12T01:37:47;103591.84;;;7.91;100.00
64192;BME280;50497;50.720;-2.084;2023-02-12T01:40:13;103576.59;;;7.76;100.00
64192;BME280;50497;50.720;-2.084;2023-02-12T01:42:40;103585.53;;;7.81;100.00
64192;BME280;50497;50.720;-2.084;2023-02-12T01:47:41;103598.88;;;7.83;100.00
64192;BME280;50497;50.720;-2.084;2023-02-12T01:50:14;103594.44;;;7.85;100.00
64192;BME280;50497;50.720;-2.084;2023-02-12T01:52:45;103604.25;;;7.87;100.00
64192;BME280;50497;50.720;-2.084;2023-02-12T01:55:13;103611.25;;;7.76;100.00
64192;BME280;50497;50.720;-2.084;2023-02-12T01:57:41;103610.41;;;7.83;100.00
64192;BME280;50497;50.720;-2.084;2023-02-12T02:00:12;103611.28;;;7.79;100.00
64192;BME280;50497;50.720;-2.084;2023-02-12T02:02:38;103602.38;;;7.78;100.00
64192;BME280;50497;50.720;-2.084;2023-02-12T02:05:05;103604.06;;;7.72;100.00
64192;BME280;50497;50.720;-2.084;2023-02-12T02:07:31;103611.19;;;7.71;100.00
64192;BME280;50497;50.720;-2.084;2023-02-12T02:09:57;103603.31;;;7.82;100.00
64192;BME280;50497;50.720;-2.084;2023-02-12T02:12:24;103611.34;;;7.88;100.00
64192;BME280;50497;50.720;-2.084;2023-02-12T02:15:09;103602.50;;;7.89;100.00
64192;BME280;50497;50.720;-2.084;2023-02-12T02:32:17;103604.19;;;7.81;100.00
64192;BME280;50497;50.720;-2.084;2023-02-12T02:35:00;103603.34;;;7.85;100.00
64192;BME280;50497;50.720;-2.084;2023-02-12T02:37:34;103616.72;;;7.91;100.00
64192;BME280;50497;50.720;-2.084;2023-02-12T02:40:18;103619.50;;;8.01;100.00
64192;BME280;50497;50.720;-2.084;2023-02-12T02:45:42;103617.63;;;7.92;100.00
64192;BME280;50497;50.720;-2.084;2023-02-12T02:48:34;103624.78;;;7.98;100.00
64192;BME280;50497;50.720;-2.084;2023-02-12T02:51:11;103628.31;;;7.96;100.00
64192;BME280;50497;50.720;-2.084;2023-02-12T02:53:46;103606.94;;;7.90;100.00
64192;BME280;50497;50.720;-2.084;2023-02-12T02:56:16;103617.63;;;7.95;100.00
64192;BME280;50497;50.720;-2.084;2023-02-12T02:58:48;103616.81;;;7.99;100.00
64192;BME280;50497;50.720;-2.084;2023-02-12T03:01:30;103617.66;;;7.96;100.00
64192;BME280;50497;50.720;-2.084;2023-02-12T03:04:18;103618.59;;;8.02;100.00
64192;BME280;50497;50.720;-2.084;2023-02-12T03:06:53;103617.66;;;7.98;100.00
64192;BME280;50497;50.720;-2.084;2023-02-12T03:11:48;103616.69;;;7.90;100.00
64192;BME280;50497;50.720;-2.084;2023-02-12T03:14:16;103606.91;;;7.87;100.00
64192;BME280;50497;50.720;-2.084;2023-02-12T03:17:08;103608.69;;;7.88;100.00
64192;BME280;50497;50.720;-2.084;2023-02-12T03:19:47;103608.66;;;7.84;100.00
64192;BME280;50497;50.720;-2.084;2023-02-12T03:22:20;103612.25;;;7.87;100.00
64192;BME280;50497;50.720;-2.084;2023-02-12T03:24:52;103614.94;;;7.90;100.00
64192;BME280;50497;50.720;-2.084;2023-02-12T03:27:33;103610.44;;;7.86;100.00
64192;BME280;50497;50.720;-2.084;2023-02-12T03:29:59;103612.22;;;7.84;100.00
64192;BME280;50497;50.720;-2.084;2023-02-12T03:33:27;103617.59;;;7.87;100.00
64192;BME280;50497;50.720;-2.084;2023-02-12T03:35:39;103622.88;;;7.84;100.00
64192;BME280;50497;50.720;-2.084;2023-02-12T03:38:18;103622.88;;;7.84;100.00
64192;BME280;50497;50.720;-2.084;2023-02-12T03:40:59;103629.13;;;7.88;100.00
64192;BME280;50497;50.720;-2.084;2023-02-12T03:46:05;103606.78;;;7.75;100.00
64192;BME280;50497;50.720;-2.084;2023-02-12T03:49:01;103628.16;;;7.81;100.00
64192;BME280;50497;50.720;-2.084;2023-02-12T03:51:34;103610.38;;;7.77;100.00
64192;BME280;50497;50.720;-2.084;2023-02-12T03:54:07;103621.97;;;7.81;100.00
64192;BME280;50497;50.720;-2.084;2023-02-12T03:59:18;103623.69;;;7.75;100.00
64192;BME280;50497;50.720;-2.084;2023-02-12T04:01:48;103623.69;;;7.77;100.00
64192;BME280;50497;50.720;-2.084;2023-02-12T04:04:17;103621.91;;;7.77;100.00
64192;BME280;50497;50.720;-2.084;2023-02-12T04:06:45;103626.28;;;7.71;100.00
64192;BME280;50497;50.720;-2.084;2023-02-12T04:09:12;103627.19;;;7.71;100.00
64192;BME280;50497;50.720;-2.084;2023-02-12T04:31:21;103630.66;;;7.64;100.00
64192;BME280;50497;50.720;-2.084;2023-02-12T04:34:12;103632.44;;;7.67;100.00
64192;BME280;50497;50.720;-2.084;2023-02-12T04:39:35;103631.41;;;7.52;100.00
64192;BME280;50497;50.720;-2.084;2023-02-12T04:42:03;103631.41;;;7.52;100.00
64192;BME280;50497;50.720;-2.084;2023-02-12T04:44:32;103631.31;;;7.45;100.00
64192;BME280;50497;50.720;-2.084;2023-02-12T04:46:58;103626.06;;;7.49;100.00
64192;BME280;50497;50.720;-2.084;2023-02-12T04:49:24;103614.31;;;7.35;100.00
64192;BME280;50497;50.720;-2.084;2023-02-12T04:51:53;103626.88;;;7.45;100.00
64192;BME280;50497;50.720;-2.084;2023-02-12T04:54:20;103618.00;;;7.46;100.00
64192;BME280;50497;50.720;-2.084;2023-02-12T04:56:47;103617.13;;;7.44;100.00
64192;BME280;50497;50.720;-2.084;2023-02-12T04:59:13;103611.75;;;7.41;100.00
64192;BME280;50497;50.720;-2.084;2023-02-12T05:01:39;103604.56;;;7.35;100.00
64192;BME280;50497;50.720;-2.084;2023-02-12T05:04:06;103587.59;;;7.26;100.00
64192;BME280;50497;50.720;-2.084;2023-02-12T05:06:36;103605.44;;;7.33;100.00
64192;BME280;50497;50.720;-2.084;2023-02-12T05:09:03;103595.59;;;7.26;100.00
64192;BME280;50497;50.720;-2.084;2023-02-12T05:11:29;103591.22;;;7.31;100.00
64192;BME280;50497;50.720;-2.084;2023-02-12T05:13:54;103580.59;;;7.37;100.00
64192;BME280;50497;50.720;-2.084;2023-02-12T05:16:21;103557.34;;;7.22;100.00
64192;BME280;50497;50.720;-2.084;2023-02-12T05:18:46;103578.84;;;7.37;100.00
64192;BME280;50497;50.720;-2.084;2023-02-12T05:21:12;103575.22;;;7.29;100.00
64192;BME280;50497;50.720;-2.084;2023-02-12T05:23:39;103544.00;;;7.17;100.00
64192;BME280;50497;50.720;-2.084;2023-02-12T05:26:14;103561.94;;;7.32;100.00
64192;BME280;50497;50.720;-2.084;2023-02-12T05:28:46;103552.03;;;7.20;100.00
64192;BME280;50497;50.720;-2.084;2023-02-12T05:31:17;103552.84;;;7.15;100.00
64192;BME280;50497;50.720;-2.084;2023-02-12T05:33:47;103550.13;;;7.12;100.00
64192;BME280;50497;50.720;-2.084;2023-02-12T05:36:15;103533.25;;;7.10;100.00
64192;BME280;50497;50.720;-2.084;2023-02-12T05:38:41;103542.06;;;7.04;100.00
64192;BME280;50497;50.720;-2.084;2023-02-12T05:41:12;103541.25;;;7.11;100.00
64192;BME280;50497;50.720;-2.084;2023-02-12T05:43:38;103539.47;;;7.12;100.00
64192;BME280;50497;50.720;-2.084;2023-02-12T05:46:05;103528.75;;;7.04;100.00
64192;BME280;50497;50.720;-2.084;2023-02-12T05:48:31;103527.81;;;6.99;100.00
64192;BME280;50497;50.720;-2.084;2023-02-12T05:51:04;103517.94;;;6.92;100.00
64192;BME280;50497;50.720;-2.084;2023-02-12T05:53:30;103506.34;;;6.87;100.00
64192;BME280;50497;50.720;-2.084;2023-02-12T05:56:13;103510.75;;;6.83;100.00
64192;BME280;50497;50.720;-2.084;2023-02-12T05:58:41;103511.59;;;6.80;100.00
64192;BME280;50497;50.720;-2.084;2023-02-12T06:01:22;103510.72;;;6.81;100.00
64192;BME280;50497;50.720;-2.084;2023-02-12T06:03:49;103514.34;;;6.87;100.00
64192;BME280;50497;50.720;-2.084;2023-02-12T06:06:18;103507.22;;;6.84;100.00
64192;BME280;50497;50.720;-2.084;2023-02-12T06:08:47;103514.22;;;6.77;100.00
64192;BME280;50497;50.720;-2.084;2023-02-12T06:11:14;103501.69;;;6.70;100.00
64192;BME280;50497;50.720;-2.084;2023-02-12T06:13:39;103505.28;;;6.72;100.00
64192;BME280;50497;50.720;-2.084;2023-02-12T06:16:05;103504.41;;;6.73;100.00
64192;BME280;50497;50.720;-2.084;2023-02-12T06:18:34;103508.75;;;6.66;100.00
64192;BME280;50497;50.720;-2.084;2023-02-12T06:21:02;103510.56;;;6.68;100.00
64192;BME280;50497;50.720;-2.084;2023-02-12T06:23:27;103512.44;;;6.76;100.00
64192;BME280;50497;50.720;-2.084;2023-02-12T06:25:56;103517.72;;;6.73;100.00
64192;BME280;50497;50.720;-2.084;2023-02-12T06:28:21;103517.72;;;6.73;100.00
64192;BME280;50497;50.720;-2.084;2023-02-12T06:30:47;103514.22;;;6.77;100.00
64192;BME280;50497;50.720;-2.084;2023-02-12T06:33:12;103509.75;;;6.75;100.00
64192;BME280;50497;50.720;-2.084;2023-02-12T06:35:38;103512.31;;;6.69;100.00
64192;BME280;50497;50.720;-2.084;2023-02-12T06:38:04;103486.50;;;6.60;100.00
64192;BME280;50497;50.720;-2.084;2023-02-12T06:40:33;103511.41;;;6.66;100.00
64192;BME280;50497;50.720;-2.084;2023-02-12T06:42:58;103515.88;;;6.68;100.00
64192;BME280;50497;50.720;-2.084;2023-02-12T06:45:24;103507.03;;;6.70;100.00
64192;BME280;50497;50.720;-2.084;2023-02-12T06:47:51;103492.53;;;6.46;100.00
64192;BME280;50497;50.720;-2.084;2023-02-12T06:50:16;103502.50;;;6.63;100.00
64192;BME280;50497;50.720;-2.084;2023-02-12T06:52:42;103497.09;;;6.57;100.00
64192;BME280;50497;50.720;-2.084;2023-02-12T06:55:11;103490.00;;;6.56;100.00
64192;BME280;50497;50.720;-2.084;2023-02-12T06:57:37;103492.75;;;6.63;100.00
64192;BME280;50497;50.720;-2.084;2023-02-12T07:00:03;103490.13;;;6.66;100.00
64192;BME280;50497;50.720;-2.084;2023-02-12T07:02:29;103491.94;;;6.69;100.00
64192;BME280;50497;50.720;-2.084;2023-02-12T07:04:54;103499.84;;;6.63;100.00
64192;BME280;50497;50.720;-2.084;2023-02-12T07:07:20;103498.03;;;6.62;100.00
64192;BME280;50497;50.720;-2.084;2023-02-12T07:09:45;103481.88;;;6.46;100.00
64192;BME280;50497;50.720;-2.084;2023-02-12T07:12:11;103486.50;;;6.60;100.00
64192;BME280;50497;50.720;-2.084;2023-02-12T07:14:36;103482.97;;;6.61;100.00
64192;BME280;50497;50.720;-2.084;2023-02-12T07:17:02;103477.59;;;6.58;100.00
64192;BME280;50497;50.720;-2.084;2023-02-12T07:19:29;103484.69;;;6.56;100.00
64192;BME280;50497;50.720;-2.084;2023-02-12T07:21:56;103478.50;;;6.60;100.00
64192;BME280;50497;50.720;-2.084;2023-02-12T07:24:22;103490.09;;;6.63;100.00
64192;BME280;50497;50.720;-2.084;2023-02-12T07:26:47;103492.69;;;6.60;100.00
64192;BME280;50497;50.720;-2.084;2023-02-12T07:29:14;103477.66;;;6.61;100.00
64192;BME280;50497;50.720;-2.084;2023-02-12T07:31:40;103488.34;;;6.65;100.00
64192;BME280;50497;50.720;-2.084;2023-02-12T07:34:06;103495.47;;;6.68;100.00
64192;BME280;50497;50.720;-2.084;2023-02-12T07:36:32;103496.41;;;6.72;100.00
64192;BME280;50497;50.720;-2.084;2023-02-12T07:38:58;103502.63;;;6.74;100.00
64192;BME280;50497;50.720;-2.084;2023-02-12T07:41:31;103500.00;;;6.75;100.00
64192;BME280;50497;50.720;-2.084;2023-02-12T07:43:59;103497.22;;;6.66;100.00
64192;BME280;50497;50.720;-2.084;2023-02-12T07:46:31;103499.00;;;6.67;100.00
64192;BME280;50497;50.720;-2.084;2023-02-12T07:49:01;103504.34;;;6.69;100.00
64192;BME280;50497;50.720;-2.084;2023-02-12T07:51:29;103498.25;;;6.79;100.00
64192;BME280;50497;50.720;-2.084;2023-02-12T07:53:57;103499.22;;;6.82;100.00
64192;BME280;50497;50.720;-2.084;2023-02-12T07:56:32;103504.50;;;6.79;100.00
64192;BME280;50497;50.720;-2.084;2023-02-12T07:59:12;103503.66;;;6.85;100.00
64192;BME280;50497;50.720;-2.084;2023-02-12T08:01:40;103493.00;;;6.83;100.00
64192;BME280;50497;50.720;-2.084;2023-02-12T08:04:09;103497.47;;;6.86;100.00
64192;BME280;50497;50.720;-2.084;2023-02-12T08:06:37;103481.47;;;6.83;100.00
64192;BME280;50497;50.720;-2.084;2023-02-12T08:09:10;103502.97;;;7.00;100.00
64192;BME280;50497;50.720;-2.084;2023-02-12T08:11:39;103511.84;;;7.02;100.00
64192;BME280;50497;50.720;-2.084;2023-02-12T08:14:09;103503.03;;;7.06;100.00
64192;BME280;50497;50.720;-2.084;2023-02-12T08:16:41;103494.16;;;7.04;100.00
64192;BME280;50497;50.720;-2.084;2023-02-12T08:19:07;103508.44;;;7.11;100.00
64192;BME280;50497;50.720;-2.084;2023-02-12T08:21:36;103512.78;;;7.07;100.00
64192;BME280;50497;50.720;-2.084;2023-02-12T08:24:11;103507.47;;;7.07;100.00
64192;BME280;50497;50.720;-2.084;2023-02-12T08:26:38;103492.44;;;7.09;100.00
64192;BME280;50497;50.720;-2.084;2023-02-12T08:29:08;103509.31;;;7.13;100.00
64192;BME280;50497;50.720;-2.084;2023-02-12T08:31:37;103511.19;;;7.20;100.00
64192;BME280;50497;50.720;-2.084;2023-02-12T08:34:17;103499.75;;;7.32;100.00
64192;BME280;50497;50.720;-2.084;2023-02-12T08:36:50;103504.31;;;7.44;100.00
64192;BME280;50497;50.720;-2.084;2023-02-12T08:39:17;103508.88;;;7.52;100.00
64192;BME280;50497;50.720;-2.084;2023-02-12T08:41:47;103512.41;;;7.51;100.00
64192;BME280;50497;50.720;-2.084;2023-02-12T08:44:14;103503.47;;;7.46;100.00
64192;BME280;50497;50.720;-2.084;2023-02-12T08:46:44;103503.59;;;7.60;100.00
64192;BME280;50497;50.720;-2.084;2023-02-12T08:49:16;103510.84;;;7.75;100.00
64192;BME280;50497;50.720;-2.084;2023-02-12T08:51:48;103493.88;;;7.67;100.00
64192;BME280;50497;50.720;-2.084;2023-02-12T08:54:17;103517.97;;;7.76;100.00
64192;BME280;50497;50.720;-2.084;2023-02-12T08:56:46;103523.31;;;7.77;100.00
64192;BME280;50497;50.720;-2.084;2023-02-12T08:59:13;103519.00;;;7.92;100.00
64192;BME280;50497;50.720;-2.084;2023-02-12T09:01:43;103528.75;;;7.91;100.00
64192;BME280;50497;50.720;-2.084;2023-02-12T09:04:26;103525.28;;;7.99;100.00
64192;BME280;50497;50.720;-2.084;2023-02-12T09:06:57;103532.50;;;8.18;100.00
64192;BME280;50497;50.720;-2.084;2023-02-12T09:09:29;103524.53;;;8.23;100.00
64192;BME280;50497;50.720;-2.084;2023-02-12T09:11:58;103526.34;;;8.22;100.00
64192;BME280;50497;50.720;-2.084;2023-02-12T09:14:30;103536.13;;;8.26;100.00
64192;BME280;50497;50.720;-2.084;2023-02-12T09:17:03;103532.59;;;8.27;100.00
64192;BME280;50497;50.720;-2.084;2023-02-12T09:19:28;103514.78;;;8.20;100.00
64192;BME280;50497;50.720;-2.084;2023-02-12T09:21:59;103541.56;;;8.39;100.00
64192;BME280;50497;50.720;-2.084;2023-02-12T09:24:26;103528.28;;;8.43;100.00
64192;BME280;50497;50.720;-2.084;2023-02-12T09:27:00;103531.75;;;8.38;100.00
64192;BME280;50497;50.720;-2.084;2023-02-12T09:29:31;103532.72;;;8.43;100.00
64192;BME280;50497;50.720;-2.084;2023-02-12T09:31:57;103523.88;;;8.50;100.00
64192;BME280;50497;50.720;-2.084;2023-02-12T09:34:23;103523.88;;;8.47;100.00
64192;BME280;50497;50.720;-2.084;2023-02-12T09:36:51;103515.00;;;8.54;100.00
64192;BME280;50497;50.720;-2.084;2023-02-12T09:39:20;103514.09;;;8.49;100.00
64192;BME280;50497;50.720;-2.084;2023-02-12T09:41:57;103520.28;;;8.45;100.00
64192;BME280;50497;50.720;-2.084;2023-02-12T09:50:36;103526.66;;;8.73;100.00
64192;BME280;50497;50.720;-2.084;2023-02-12T09:53:13;103534.69;;;8.78;100.00
64192;BME280;50497;50.720;-2.084;2023-02-12T09:55:41;103539.13;;;8.73;100.00
64192;BME280;50497;50.720;-2.084;2023-02-12T09:58:24;103527.56;;;8.80;100.00
64192;BME280;50497;50.720;-2.084;2023-02-12T10:00:53;103533.84;;;8.88;100.00
64192;BME280;50497;50.720;-2.084;2023-02-12T10:03:24;103535.59;;;8.80;100.00
64192;BME280;50497;50.720;-2.084;2023-02-12T10:06:00;103534.66;;;8.75;100.00
64192;BME280;50497;50.720;-2.084;2023-02-12T10:27:37;103534.00;;;9.28;100.00
64192;BME280;50497;50.720;-2.084;2023-02-12T10:30:16;103538.50;;;9.38;100.00
64192;BME280;50497;50.720;-2.084;2023-02-12T10:32:51;103533.16;;;9.40;100.00
64192;BME280;50497;50.720;-2.084;2023-02-12T10:35:28;103541.16;;;9.34;100.00
64192;BME280;50497;50.720;-2.084;2023-02-12T10:38:16;103563.41;;;9.28;100.00
64192;BME280;50497;50.720;-2.084;2023-02-12T10:40:55;103580.31;;;9.30;100.00
64192;BME280;50497;50.720;-2.084;2023-02-12T10:43:32;103604.41;;;9.36;100.00
64192;BME280;50497;50.720;-2.084;2023-02-12T10:46:08;103615.97;;;9.34;100.00
64192;BME280;50497;50.720;-2.084;2023-02-12T10:48:52;103617.75;;;9.35;100.00
64192;BME280;50497;50.720;-2.084;2023-02-12T10:57:26;103610.63;;;9.38;100.00
64192;BME280;50497;50.720;-2.084;2023-02-12T11:03:18;103606.22;;;9.45;100.00
64192;BME280;50497;50.720;-2.084;2023-02-12T11:05:50;103602.63;;;9.46;100.00
64192;BME280;50497;50.720;-2.084;2023-02-12T11:08:36;103586.59;;;9.41;100.00
64192;BME280;50497;50.720;-2.084;2023-02-12T11:16:38;103613.31;;;9.41;100.00
64192;BME280;50497;50.720;-2.084;2023-02-12T11:19:20;103617.78;;;9.46;100.00
64192;BME280;50497;50.720;-2.084;2023-02-12T11:22:11;103610.59;;;9.29;100.00
64192;BME280;50497;50.720;-2.084;2023-02-12T11:27:32;103624.81;;;9.22;100.00
64192;BME280;50497;50.720;-2.084;2023-02-12T11:30:12;103609.69;;;9.24;100.00
64192;BME280;50497;50.720;-2.084;2023-02-12T11:32:39;103615.84;;;9.09;100.00
64192;BME280;50497;50.720;-2.084;2023-02-12T11:35:28;103617.69;;;9.15;100.00
64192;BME280;50497;50.720;-2.084;2023-02-12T11:38:00;103616.75;;;9.14;100.00
64192;BME280;50497;50.720;-2.084;2023-02-12T11:43:22;103609.59;;;9.05;100.00
64192;BME280;50497;50.720;-2.084;2023-02-12T11:46:02;103586.28;;;8.74;100.00
64192;BME280;50497;50.720;-2.084;2023-02-12T11:48:35;103588.16;;;8.95;100.00
64192;BME280;50497;50.720;-2.084;2023-02-12T11:51:08;103584.66;;;9.03;100.00
64192;BME280;50497;50.720;-2.084;2023-02-12T11:53:49;103587.34;;;9.05;100.00
64192;BME280;50497;50.720;-2.084;2023-02-12T11:56:23;103582.94;;;9.21;100.00
64192;BME280;50497;50.720;-2.084;2023-02-12T11:58:51;103584.75;;;9.22;100.00
64192;BME280;50497;50.720;-2.084;2023-02-12T12:01:27;103575.00;;;9.36;100.00
64192;BME280;50497;50.720;-2.084;2023-02-12T12:04:02;103581.22;;;9.35;100.00
64192;BME280;50497;50.720;-2.084;2023-02-12T12:09:39;103591.03;;;9.35;100.00
64192;BME280;50497;50.720;-2.084;2023-02-12T12:12:22;103574.06;;;9.20;100.00
64192;BME280;50497;50.720;-2.084;2023-02-12T12:14:54;103565.16;;;9.21;100.00
64192;BME280;50497;50.720;-2.084;2023-02-12T12:18:03;103580.22;;;9.02;100.00
64192;BME280;50497;50.720;-2.084;2023-02-12T12:21:27;103573.09;;;9.04;100.00
64192;BME280;50497;50.720;-2.084;2023-02-12T12:24:07;103558.84;;;9.04;100.00
64192;BME280;50497;50.720;-2.084;2023-02-12T12:26:38;103556.97;;;8.83;100.00
64192;BME280;50497;50.720;-2.084;2023-02-12T12:29:24;103552.53;;;8.90;100.00
64192;BME280;50497;50.720;-2.084;2023-02-12T12:32:00;103550.75;;;8.85;100.00
64192;BME280;50497;50.720;-2.084;2023-02-12T12:34:44;103531.19;;;8.91;100.00
64192;BME280;50497;50.720;-2.084;2023-02-12T12:37:44;103547.22;;;8.91;100.00
64192;BME280;50497;50.720;-2.084;2023-02-12T12:40:41;103533.84;;;8.91;100.00
64192;BME280;50497;50.720;-2.084;2023-02-12T12:54:25;103503.53;;;8.74;100.00
64192;BME280;50497;50.720;-2.084;2023-02-12T13:14:28;103459.09;;;8.82;100.00
64192;BME280;50497;50.720;-2.084;2023-02-12T13:19:54;103459.94;;;8.70;100.00
64192;BME280;50497;50.720;-2.084;2023-02-12T13:22:41;103436.72;;;8.54;100.00
64192;BME280;50497;50.720;-2.084;2023-02-12T13:25:25;103451.00;;;8.62;100.00
64192;BME280;50497;50.720;-2.084;2023-02-12T13:27:54;103459.88;;;8.62;100.00
64192;BME280;50497;50.720;-2.084;2023-02-12T13:30:45;103451.81;;;8.51;100.00
64192;BME280;50497;50.720;-2.084;2023-02-12T13:33:32;103443.81;;;8.53;100.00
64192;BME280;50497;50.720;-2.084;2023-02-12T13:36:06;103444.69;;;8.47;100.00
64192;BME280;50497;50.720;-2.084;2023-02-12T13:38:42;103443.81;;;8.44;100.00
64192;BME280;50497;50.720;-2.084;2023-02-12T13:41:10;103442.09;;;8.57;100.00
64192;BME280;50497;50.720;-2.084;2023-02-12T13:49:08;103438.56;;;8.65;100.00
64192;BME280;50497;50.720;-2.084;2023-02-12T13:51:49;103436.75;;;8.64;100.00
64192;BME280;50497;50.720;-2.084;2023-02-12T13:56:55;103434.72;;;8.17;100.00
64192;BME280;50497;50.720;-2.084;2023-02-12T14:01:59;103420.50;;;8.18;100.00
64192;BME280;50497;50.720;-2.084;2023-02-12T14:04:46;103421.34;;;8.11;100.00
64192;BME280;50497;50.720;-2.084;2023-02-12T14:07:21;103415.94;;;7.95;100.00
64192;BME280;50497;50.720;-2.084;2023-02-12T14:12:28;103406.16;;;7.98;100.00
64192;BME280;50497;50.720;-2.084;2023-02-12T14:15:08;103415.09;;;8.06;100.00
64192;BME280;50497;50.720;-2.084;2023-02-12T14:17:40;103406.22;;;8.05;100.00
64192;BME280;50497;50.720;-2.084;2023-02-12T14:25:36;103402.66;;;8.05;100.00
64192;BME280;50497;50.720;-2.084;2023-02-12T14:28:19;103403.53;;;8.01;100.00
64192;BME280;50497;50.720;-2.084;2023-02-12T14:34:36;103390.22;;;8.10;100.00
64192;BME280;50497;50.720;-2.084;2023-02-12T14:36:40;103391.16;;;8.18;100.00
64192;BME280;50497;50.720;-2.084;2023-02-12T14:44:48;103398.25;;;8.07;100.00
64192;BME280;50497;50.720;-2.084;2023-02-12T14:47:48;103400.88;;;8.02;100.00
64192;BME280;50497;50.720;-2.084;2023-02-12T14:50:17;103390.16;;;7.98;100.00
64192;BME280;50497;50.720;-2.084;2023-02-12T14:52:50;103391.06;;;7.98;100.00
64192;BME280;50497;50.720;-2.084;2023-02-12T14:55:38;103393.69;;;7.95;100.00
64192;BME280;50497;50.720;-2.084;2023-02-12T14:58:17;103385.75;;;8.03;100.00
64192;BME280;50497;50.720;-2.084;2023-02-12T15:00:46;103391.97;;;7.99;100.00
64192;BME280;50497;50.720;-2.084;2023-02-12T15:03:28;103391.91;;;7.92;100.00
64192;BME280;50497;50.720;-2.084;2023-02-12T15:08:56;103378.59;;;7.92;100.00
64192;BME280;50497;50.720;-2.084;2023-02-12T15:14:14;103377.69;;;7.87;100.00
64192;BME280;50497;50.720;-2.084;2023-02-12T15:16:51;103372.25;;;7.70;100.00
64192;BME280;50497;50.720;-2.084;2023-02-12T15:19:25;103353.50;;;7.59;100.00
64192;BME280;50497;50.720;-2.084;2023-02-12T15:21:53;103356.22;;;7.66;100.00
64192;BME280;50497;50.720;-2.084;2023-02-12T15:24:24;103337.56;;;7.64;100.00
64192;BME280;50497;50.720;-2.084;2023-02-12T15:26:57;103346.47;;;7.71;100.00
64192;BME280;50497;50.720;-2.084;2023-02-12T15:29:32;103347.41;;;7.76;100.00
64192;BME280;50497;50.720;-2.084;2023-02-12T15:32:03;103346.50;;;7.74;100.00
64192;BME280;50497;50.720;-2.084;2023-02-12T15:34:32;103343.84;;;7.77;100.00
64192;BME280;50497;50.720;-2.084;2023-02-12T15:37:04;103340.28;;;7.76;100.00
64192;BME280;50497;50.720;-2.084;2023-02-12T15:42:29;103344.75;;;7.77;100.00
64192;BME280;50497;50.720;-2.084;2023-02-12T15:47:43;103333.97;;;7.59;100.00
64192;BME280;50497;50.720;-2.084;2023-02-12T15:50:14;103338.47;;;7.68;100.00
64192;BME280;50497;50.720;-2.084;2023-02-12T15:52:43;103339.31;;;7.61;100.00
64192;BME280;50497;50.720;-2.084;2023-02-12T15:55:21;103342.81;;;7.55;100.00